sensor_id;sensor_type;location;lat;lon;timestamp;temperature;humidity
70826;SHT31;58446;41.490;22.098;2023-05-06T00:00:32;15.76;68.98
70826;SHT31;58446;41.490;22.098;2023-05-06T00:02:59;15.98;68.35
70826;SHT31;58446;41.490;22.098;2023-05-06T00:05:25;15.93;68.12
70826;SHT31;58446;41.490;22.098;2023-05-06T00:07:51;15.83;67.76
70826;SHT31;58446;41.490;22.098;2023-05-06T00:10:17;15.87;68.29
70826;SHT31;58446;41.490;22.098;2023-05-06T00:12:44;16.17;67.64
70826;SHT31;58446;41.490;22.098;2023-05-06T00:15:10;16.28;67.01
70826;SHT31;58446;41.490;22.098;2023-05-06T00:17:36;15.98;67.40
70826;SHT31;58446;41.490;22.098;2023-05-06T00:20:02;15.98;67.40
70826;SHT31;58446;41.490;22.098;2023-05-06T00:22:28;15.73;67.84
70826;SHT31;58446;41.490;22.098;2023-05-06T00:24:54;15.85;68.07
70826;SHT31;58446;41.490;22.098;2023-05-06T00:27:19;15.74;67.82
70826;SHT31;58446;41.490;22.098;2023-05-06T00:29:45;15.82;68.13
70826;SHT31;58446;41.490;22.098;2023-05-06T00:32:11;15.74;67.61
70826;SHT31;58446;41.490;22.098;2023-05-06T00:34:36;15.80;67.99
70826;SHT31;58446;41.490;22.098;2023-05-06T00:37:02;15.87;67.65
70826;SHT31;58446;41.490;22.098;2023-05-06T00:39:28;15.80;67.54
70826;SHT31;58446;41.490;22.098;2023-05-06T00:41:58;15.71;67.93
70826;SHT31;58446;41.490;22.098;2023-05-06T00:44:27;15.80;67.94
70826;SHT31;58446;41.490;22.098;2023-05-06T00:46:53;15.87;67.56
70826;SHT31;58446;41.490;22.098;2023-05-06T00:49:19;15.79;67.36
70826;SHT31;58446;41.490;22.098;2023-05-06T00:51:46;15.69;67.46
70826;SHT31;58446;41.490;22.098;2023-05-06T00:54:12;15.70;67.98
70826;SHT31;58446;41.490;22.098;2023-05-06T00:56:40;15.31;68.40
70826;SHT31;58446;41.490;22.098;2023-05-06T00:59:06;15.48;68.71
70826;SHT31;58446;41.490;22.098;2023-05-06T01:01:31;15.48;68.52
70826;SHT31;58446;41.490;22.098;2023-05-06T01:03:58;15.05;69.38
70826;SHT31;58446;41.490;22.098;2023-05-06T01:11:40;15.22;69.05
70826;SHT31;58446;41.490;22.098;2023-05-06T01:14:25;15.48;68.63
70826;SHT31;58446;41.490;22.098;2023-05-06T01:16:54;15.63;68.22
70826;SHT31;58446;41.490;22.098;2023-05-06T01:22:00;15.35;68.46
70826;SHT31;58446;41.490;22.098;2023-05-06T01:24:40;15.58;67.66
70826;SHT31;58446;41.490;22.098;2023-05-06T01:27:07;15.48;67.48
70826;SHT31;58446;41.490;22.098;2023-05-06T01:29:36;15.31;67.53
70826;SHT31;58446;41.490;22.098;2023-05-06T01:32:32;14.81;68.58
70826;SHT31;58446;41.490;22.098;2023-05-06T01:35:14;14.60;69.41
70826;SHT31;58446;41.490;22.098;2023-05-06T01:37:55;14.73;70.50
70826;SHT31;58446;41.490;22.098;2023-05-06T01:40:24;14.88;69.82
70826;SHT31;58446;41.490;22.098;2023-05-06T01:42:51;14.47;70.21
70826;SHT31;58446;41.490;22.098;2023-05-06T01:45:19;14.74;70.10
70826;SHT31;58446;41.490;22.098;2023-05-06T01:47:46;14.92;69.46
70826;SHT31;58446;41.490;22.098;2023-05-06T01:50:12;15.08;68.83
70826;SHT31;58446;41.490;22.098;2023-05-06T01:52:38;15.21;68.43
70826;SHT31;58446;41.490;22.098;2023-05-06T01:55:04;15.15;68.12
70826;SHT31;58446;41.490;22.098;2023-05-06T01:57:30;15.05;67.98
70826;SHT31;58446;41.490;22.098;2023-05-06T01:59:56;15.05;68.33
70826;SHT31;58446;41.490;22.098;2023-05-06T02:02:22;15.12;68.28
70826;SHT31;58446;41.490;22.098;2023-05-06T02:04:50;14.97;67.97
70826;SHT31;58446;41.490;22.098;2023-05-06T02:07:16;14.78;68.26
70826;SHT31;58446;41.490;22.098;2023-05-06T02:09:42;14.89;68.89
70826;SHT31;58446;41.490;22.098;2023-05-06T02:12:07;15.08;68.29
70826;SHT31;58446;41.490;22.098;2023-05-06T02:14:33;15.08;67.94
70826;SHT31;58446;41.490;22.098;2023-05-06T02:17:05;15.07;67.87
70826;SHT31;58446;41.490;22.098;2023-05-06T02:19:31;14.61;67.60
70826;SHT31;58446;41.490;22.098;2023-05-06T02:21:56;14.56;68.57
70826;SHT31;58446;41.490;22.098;2023-05-06T02:24:22;14.56;69.20
70826;SHT31;58446;41.490;22.098;2023-05-06T02:26:48;14.80;68.80
70826;SHT31;58446;41.490;22.098;2023-05-06T02:29:14;14.88;68.28
70826;SHT31;58446;41.490;22.098;2023-05-06T02:31:39;14.85;68.24
70826;SHT31;58446;41.490;22.098;2023-05-06T02:34:07;14.98;67.72
70826;SHT31;58446;41.490;22.098;2023-05-06T02:36:33;14.84;67.94
70826;SHT31;58446;41.490;22.098;2023-05-06T02:38:59;14.83;67.67
70826;SHT31;58446;41.490;22.098;2023-05-06T02:41:24;14.78;67.71
70826;SHT31;58446;41.490;22.098;2023-05-06T02:43:50;14.81;67.82
70826;SHT31;58446;41.490;22.098;2023-05-06T02:46:16;14.81;67.71
70826;SHT31;58446;41.490;22.098;2023-05-06T02:48:41;14.70;67.87
70826;SHT31;58446;41.490;22.098;2023-05-06T02:51:07;14.68;68.14
70826;SHT31;58446;41.490;22.098;2023-05-06T02:53:33;14.63;68.37
70826;SHT31;58446;41.490;22.098;2023-05-06T02:55:59;14.63;67.76
70826;SHT31;58446;41.490;22.098;2023-05-06T02:58:26;14.56;68.13
70826;SHT31;58446;41.490;22.098;2023-05-06T03:00:54;14.51;68.07
70826;SHT31;58446;41.490;22.098;2023-05-06T03:03:21;14.55;68.30
70826;SHT31;58446;41.490;22.098;2023-05-06T03:05:47;14.50;68.60
70826;SHT31;58446;41.490;22.098;2023-05-06T03:08:13;14.47;68.38
70826;SHT31;58446;41.490;22.098;2023-05-06T03:10:38;14.59;68.56
70826;SHT31;58446;41.490;22.098;2023-05-06T03:13:04;14.50;68.75
70826;SHT31;58446;41.490;22.098;2023-05-06T03:15:30;14.47;68.20
70826;SHT31;58446;41.490;22.098;2023-05-06T03:17:56;14.46;68.50
70826;SHT31;58446;41.490;22.098;2023-05-06T03:20:22;14.36;68.94
70826;SHT31;58446;41.490;22.098;2023-05-06T03:22:48;14.32;68.70
70826;SHT31;58446;41.490;22.098;2023-05-06T03:25:14;14.02;69.23
70826;SHT31;58446;41.490;22.098;2023-05-06T03:27:40;14.16;69.80
70826;SHT31;58446;41.490;22.098;2023-05-06T03:30:06;14.39;69.14
70826;SHT31;58446;41.490;22.098;2023-05-06T03:32:33;14.59;68.77
70826;SHT31;58446;41.490;22.098;2023-05-06T03:34:58;14.67;68.23
70826;SHT31;58446;41.490;22.098;2023-05-06T03:37:24;14.71;67.90
70826;SHT31;58446;41.490;22.098;2023-05-06T03:39:50;14.59;67.24
70826;SHT31;58446;41.490;22.098;2023-05-06T03:42:16;14.61;68.23
70826;SHT31;58446;41.490;22.098;2023-05-06T03:44:41;14.68;67.46
70826;SHT31;58446;41.490;22.098;2023-05-06T03:47:07;14.88;67.14
70826;SHT31;58446;41.490;22.098;2023-05-06T03:49:33;15.01;66.58
70826;SHT31;58446;41.490;22.098;2023-05-06T03:51:59;14.64;66.52
70826;SHT31;58446;41.490;22.098;2023-05-06T03:54:24;13.81;69.31
70826;SHT31;58446;41.490;22.098;2023-05-06T03:56:50;14.02;69.65
70826;SHT31;58446;41.490;22.098;2023-05-06T03:59:16;13.78;69.09
70826;SHT31;58446;41.490;22.098;2023-05-06T04:01:41;13.57;69.95
70826;SHT31;58446;41.490;22.098;2023-05-06T04:04:07;13.74;70.87
70826;SHT31;58446;41.490;22.098;2023-05-06T04:06:33;13.89;69.58
70826;SHT31;58446;41.490;22.098;2023-05-06T04:08:58;13.99;69.51
70826;SHT31;58446;41.490;22.098;2023-05-06T04:11:24;14.29;69.10
70826;SHT31;58446;41.490;22.098;2023-05-06T04:13:50;14.34;68.72
70826;SHT31;58446;41.490;22.098;2023-05-06T04:16:15;14.51;68.15
70826;SHT31;58446;41.490;22.098;2023-05-06T04:18:41;15.01;67.10
70826;SHT31;58446;41.490;22.098;2023-05-06T04:21:08;15.46;65.69
70826;SHT31;58446;41.490;22.098;2023-05-06T04:23:37;15.66;64.91
70826;SHT31;58446;41.490;22.098;2023-05-06T04:26:02;15.83;63.98
70826;SHT31;58446;41.490;22.098;2023-05-06T04:28:28;15.69;64.68
70826;SHT31;58446;41.490;22.098;2023-05-06T04:30:54;15.50;64.54
70826;SHT31;58446;41.490;22.098;2023-05-06T04:33:21;15.71;64.74
70826;SHT31;58446;41.490;22.098;2023-05-06T04:35:50;15.66;64.23
70826;SHT31;58446;41.490;22.098;2023-05-06T04:38:20;15.76;64.37
70826;SHT31;58446;41.490;22.098;2023-05-06T04:40:47;15.79;64.22
70826;SHT31;58446;41.490;22.098;2023-05-06T04:43:14;15.91;63.73
70826;SHT31;58446;41.490;22.098;2023-05-06T04:45:43;15.83;64.43
70826;SHT31;58446;41.490;22.098;2023-05-06T04:48:19;16.16;64.03
70826;SHT31;58446;41.490;22.098;2023-05-06T04:50:49;16.17;64.42
70826;SHT31;58446;41.490;22.098;2023-05-06T04:53:15;16.76;63.51
70826;SHT31;58446;41.490;22.098;2023-05-06T04:55:41;16.98;63.16
70826;SHT31;58446;41.490;22.098;2023-05-06T04:58:07;16.99;62.45
70826;SHT31;58446;41.490;22.098;2023-05-06T05:00:34;17.34;61.26
70826;SHT31;58446;41.490;22.098;2023-05-06T05:02:59;17.29;60.56
70826;SHT31;58446;41.490;22.098;2023-05-06T05:05:27;17.31;61.65
70826;SHT31;58446;41.490;22.098;2023-05-06T05:07:53;17.19;61.12
70826;SHT31;58446;41.490;22.098;2023-05-06T05:10:19;17.34;60.95
70826;SHT31;58446;41.490;22.098;2023-05-06T05:12:45;17.61;59.64
70826;SHT31;58446;41.490;22.098;2023-05-06T05:15:11;17.64;59.68
70826;SHT31;58446;41.490;22.098;2023-05-06T05:17:37;17.46;60.18
70826;SHT31;58446;41.490;22.098;2023-05-06T05:20:03;17.44;60.50
70826;SHT31;58446;41.490;22.098;2023-05-06T05:22:30;17.51;61.19
70826;SHT31;58446;41.490;22.098;2023-05-06T05:24:56;17.77;60.76
70826;SHT31;58446;41.490;22.098;2023-05-06T05:27:22;17.79;61.26
70826;SHT31;58446;41.490;22.098;2023-05-06T05:29:48;17.75;60.76
70826;SHT31;58446;41.490;22.098;2023-05-06T05:32:14;18.12;59.60
70826;SHT31;58446;41.490;22.098;2023-05-06T05:34:40;18.25;59.62
70826;SHT31;58446;41.490;22.098;2023-05-06T05:37:06;18.35;59.03
70826;SHT31;58446;41.490;22.098;2023-05-06T05:39:32;18.55;58.88
70826;SHT31;58446;41.490;22.098;2023-05-06T05:41:57;18.55;58.35
70826;SHT31;58446;41.490;22.098;2023-05-06T05:44:23;18.63;59.28
70826;SHT31;58446;41.490;22.098;2023-05-06T05:46:49;18.91;59.03
70826;SHT31;58446;41.490;22.098;2023-05-06T05:49:15;19.22;57.79
70826;SHT31;58446;41.490;22.098;2023-05-06T05:51:41;19.03;57.19
70826;SHT31;58446;41.490;22.098;2023-05-06T05:54:06;19.35;57.00
70826;SHT31;58446;41.490;22.098;2023-05-06T05:56:32;19.38;55.91
70826;SHT31;58446;41.490;22.098;2023-05-06T05:58:57;19.00;58.30
70826;SHT31;58446;41.490;22.098;2023-05-06T06:01:23;19.10;60.13
70826;SHT31;58446;41.490;22.098;2023-05-06T06:03:49;19.18;60.05
70826;SHT31;58446;41.490;22.098;2023-05-06T06:06:15;19.48;59.95
70826;SHT31;58446;41.490;22.098;2023-05-06T06:08:40;19.73;58.97
70826;SHT31;58446;41.490;22.098;2023-05-06T06:11:06;20.01;57.54
70826;SHT31;58446;41.490;22.098;2023-05-06T06:13:32;20.10;57.63
70826;SHT31;58446;41.490;22.098;2023-05-06T06:15:57;20.05;56.05
70826;SHT31;58446;41.490;22.098;2023-05-06T06:18:23;20.12;56.42
70826;SHT31;58446;41.490;22.098;2023-05-06T06:20:49;19.97;57.19
70826;SHT31;58446;41.490;22.098;2023-05-06T06:23:15;20.09;56.53
70826;SHT31;58446;41.490;22.098;2023-05-06T06:25:41;19.80;57.14
70826;SHT31;58446;41.490;22.098;2023-05-06T06:28:06;19.92;58.62
70826;SHT31;58446;41.490;22.098;2023-05-06T06:30:32;19.96;56.31
70826;SHT31;58446;41.490;22.098;2023-05-06T06:32:58;20.13;57.47
70826;SHT31;58446;41.490;22.098;2023-05-06T06:35:26;19.97;56.17
70826;SHT31;58446;41.490;22.098;2023-05-06T06:37:53;20.19;55.39
70826;SHT31;58446;41.490;22.098;2023-05-06T06:40:20;20.29;55.25
70826;SHT31;58446;41.490;22.098;2023-05-06T06:42:46;20.26;55.48
70826;SHT31;58446;41.490;22.098;2023-05-06T06:45:12;20.36;55.47
70826;SHT31;58446;41.490;22.098;2023-05-06T06:47:38;20.65;53.70
70826;SHT31;58446;41.490;22.098;2023-05-06T06:50:06;20.74;53.96
70826;SHT31;58446;41.490;22.098;2023-05-06T06:52:33;20.63;54.79
70826;SHT31;58446;41.490;22.098;2023-05-06T06:55:00;20.81;53.44
70826;SHT31;58446;41.490;22.098;2023-05-06T06:57:26;20.92;52.30
70826;SHT31;58446;41.490;22.098;2023-05-06T06:59:52;20.78;52.86
70826;SHT31;58446;41.490;22.098;2023-05-06T07:02:19;20.74;51.55
70826;SHT31;58446;41.490;22.098;2023-05-06T07:04:45;20.69;52.73
70826;SHT31;58446;41.490;22.098;2023-05-06T07:07:11;20.61;52.71
70826;SHT31;58446;41.490;22.098;2023-05-06T07:09:37;20.58;51.12
70826;SHT31;58446;41.490;22.098;2023-05-06T07:12:05;20.67;51.91
70826;SHT31;58446;41.490;22.098;2023-05-06T07:14:31;20.68;52.35
70826;SHT31;58446;41.490;22.098;2023-05-06T07:16:57;20.94;54.26
70826;SHT31;58446;41.490;22.098;2023-05-06T07:19:23;21.18;50.77
70826;SHT31;58446;41.490;22.098;2023-05-06T07:21:49;21.12;50.49
70826;SHT31;58446;41.490;22.098;2023-05-06T07:24:15;21.22;51.16
70826;SHT31;58446;41.490;22.098;2023-05-06T07:26:40;21.23;52.03
70826;SHT31;58446;41.490;22.098;2023-05-06T07:29:06;21.16;50.29
70826;SHT31;58446;41.490;22.098;2023-05-06T07:31:32;21.05;51.29
70826;SHT31;58446;41.490;22.098;2023-05-06T07:33:58;21.13;51.58
70826;SHT31;58446;41.490;22.098;2023-05-06T07:36:24;21.26;50.11
70826;SHT31;58446;41.490;22.098;2023-05-06T07:38:51;21.20;50.00
70826;SHT31;58446;41.490;22.098;2023-05-06T07:41:17;21.36;51.27
70826;SHT31;58446;41.490;22.098;2023-05-06T07:43:43;21.56;52.35
70826;SHT31;58446;41.490;22.098;2023-05-06T07:46:09;21.74;51.04
70826;SHT31;58446;41.490;22.098;2023-05-06T07:48:35;21.77;51.58
70826;SHT31;58446;41.490;22.098;2023-05-06T07:51:02;21.71;50.79
70826;SHT31;58446;41.490;22.098;2023-05-06T07:53:28;21.69;50.38
70826;SHT31;58446;41.490;22.098;2023-05-06T07:55:54;21.83;51.83
70826;SHT31;58446;41.490;22.098;2023-05-06T07:58:22;21.96;50.18
70826;SHT31;58446;41.490;22.098;2023-05-06T08:00:48;21.81;51.19
70826;SHT31;58446;41.490;22.098;2023-05-06T08:03:14;22.05;51.60
70826;SHT31;58446;41.490;22.098;2023-05-06T08:05:41;22.22;50.00
70826;SHT31;58446;41.490;22.098;2023-05-06T08:08:06;22.42;50.32
70826;SHT31;58446;41.490;22.098;2023-05-06T08:10:32;22.45;50.00
70826;SHT31;58446;41.490;22.098;2023-05-06T08:12:58;22.42;50.21
70826;SHT31;58446;41.490;22.098;2023-05-06T08:15:24;22.52;48.02
70826;SHT31;58446;41.490;22.098;2023-05-06T08:17:49;22.37;48.54
70826;SHT31;58446;41.490;22.098;2023-05-06T08:20:15;21.83;49.50
70826;SHT31;58446;41.490;22.098;2023-05-06T08:22:41;21.96;49.88
70826;SHT31;58446;41.490;22.098;2023-05-06T08:25:07;22.12;49.65
70826;SHT31;58446;41.490;22.098;2023-05-06T08:27:33;22.24;50.93
70826;SHT31;58446;41.490;22.098;2023-05-06T08:29:58;22.53;49.68
70826;SHT31;58446;41.490;22.098;2023-05-06T08:32:24;22.72;47.45
70826;SHT31;58446;41.490;22.098;2023-05-06T08:34:50;22.63;47.39
70826;SHT31;58446;41.490;22.098;2023-05-06T08:37:15;22.31;48.90
70826;SHT31;58446;41.490;22.098;2023-05-06T08:39:41;22.42;50.22
70826;SHT31;58446;41.490;22.098;2023-05-06T08:42:09;22.37;47.76
70826;SHT31;58446;41.490;22.098;2023-05-06T08:44:35;22.15;49.38
70826;SHT31;58446;41.490;22.098;2023-05-06T08:47:01;21.97;46.86
70826;SHT31;58446;41.490;22.098;2023-05-06T08:49:27;21.67;48.59
70826;SHT31;58446;41.490;22.098;2023-05-06T08:51:52;21.47;48.53
70826;SHT31;58446;41.490;22.098;2023-05-06T08:54:18;21.51;48.15
70826;SHT31;58446;41.490;22.098;2023-05-06T08:56:47;21.76;49.57
70826;SHT31;58446;41.490;22.098;2023-05-06T08:59:13;21.97;47.91
70826;SHT31;58446;41.490;22.098;2023-05-06T09:01:39;22.15;46.52
70826;SHT31;58446;41.490;22.098;2023-05-06T09:04:06;22.15;48.49
70826;SHT31;58446;41.490;22.098;2023-05-06T09:06:32;22.31;48.53
70826;SHT31;58446;41.490;22.098;2023-05-06T09:08:58;22.39;45.43
70826;SHT31;58446;41.490;22.098;2023-05-06T09:11:26;22.28;45.80
70826;SHT31;58446;41.490;22.098;2023-05-06T09:14:28;22.35;45.71
70826;SHT31;58446;41.490;22.098;2023-05-06T09:16:54;22.21;45.41
70826;SHT31;58446;41.490;22.098;2023-05-06T09:19:21;22.25;46.33
70826;SHT31;58446;41.490;22.098;2023-05-06T09:21:49;22.49;48.95
70826;SHT31;58446;41.490;22.098;2023-05-06T09:24:15;22.60;46.69
70826;SHT31;58446;41.490;22.098;2023-05-06T09:26:42;22.45;47.56
70826;SHT31;58446;41.490;22.098;2023-05-06T09:29:08;22.42;47.94
70826;SHT31;58446;41.490;22.098;2023-05-06T09:31:45;22.70;49.74
70826;SHT31;58446;41.490;22.098;2023-05-06T09:34:12;23.11;46.16
70826;SHT31;58446;41.490;22.098;2023-05-06T09:36:38;23.38;46.53
70826;SHT31;58446;41.490;22.098;2023-05-06T09:39:04;23.54;47.68
70826;SHT31;58446;41.490;22.098;2023-05-06T09:41:30;23.67;45.61
70826;SHT31;58446;41.490;22.098;2023-05-06T09:43:56;23.68;45.02
70826;SHT31;58446;41.490;22.098;2023-05-06T09:46:24;23.71;43.91
70826;SHT31;58446;41.490;22.098;2023-05-06T09:48:53;23.59;42.98
70826;SHT31;58446;41.490;22.098;2023-05-06T09:51:19;23.46;42.64
70826;SHT31;58446;41.490;22.098;2023-05-06T09:53:46;23.46;44.15
70826;SHT31;58446;41.490;22.098;2023-05-06T09:56:13;23.65;45.17
70826;SHT31;58446;41.490;22.098;2023-05-06T09:58:39;23.84;44.20
70826;SHT31;58446;41.490;22.098;2023-05-06T10:01:07;24.05;44.03
70826;SHT31;58446;41.490;22.098;2023-05-06T10:03:33;24.02;42.58
70826;SHT31;58446;41.490;22.098;2023-05-06T10:06:01;23.94;43.17
70826;SHT31;58446;41.490;22.098;2023-05-06T10:08:28;23.95;42.98
70826;SHT31;58446;41.490;22.098;2023-05-06T10:10:54;24.06;43.15
70826;SHT31;58446;41.490;22.098;2023-05-06T10:13:21;24.18;45.12
70826;SHT31;58446;41.490;22.098;2023-05-06T10:15:49;24.26;44.63
70826;SHT31;58446;41.490;22.098;2023-05-06T10:18:16;23.92;45.15
70826;SHT31;58446;41.490;22.098;2023-05-06T10:20:43;23.89;44.20
70826;SHT31;58446;41.490;22.098;2023-05-06T10:23:26;23.77;43.61
70826;SHT31;58446;41.490;22.098;2023-05-06T10:26:03;23.62;44.05
70826;SHT31;58446;41.490;22.098;2023-05-06T10:28:31;23.50;44.67
70826;SHT31;58446;41.490;22.098;2023-05-06T10:30:58;23.67;45.59
70826;SHT31;58446;41.490;22.098;2023-05-06T10:33:25;23.89;45.88
70826;SHT31;58446;41.490;22.098;2023-05-06T10:38:29;23.62;46.43
70826;SHT31;58446;41.490;22.098;2023-05-06T10:40:57;23.81;45.09
70826;SHT31;58446;41.490;22.098;2023-05-06T10:43:28;23.98;45.11
70826;SHT31;58446;41.490;22.098;2023-05-06T10:46:14;24.20;44.23
70826;SHT31;58446;41.490;22.098;2023-05-06T10:51:31;24.46;42.79
70826;SHT31;58446;41.490;22.098;2023-05-06T10:59:24;24.15;42.08
70826;SHT31;58446;41.490;22.098;2023-05-06T11:01:54;24.09;41.93
70826;SHT31;58446;41.490;22.098;2023-05-06T11:04:21;24.04;41.55
70826;SHT31;58446;41.490;22.098;2023-05-06T11:06:48;24.10;44.29
70826;SHT31;58446;41.490;22.098;2023-05-06T11:09:16;24.09;42.23
70826;SHT31;58446;41.490;22.098;2023-05-06T11:11:58;24.15;45.56
70826;SHT31;58446;41.490;22.098;2023-05-06T11:14:31;24.33;43.51
70826;SHT31;58446;41.490;22.098;2023-05-06T11:17:01;24.44;44.12
70826;SHT31;58446;41.490;22.098;2023-05-06T11:19:29;24.55;41.29
70826;SHT31;58446;41.490;22.098;2023-05-06T11:21:56;24.49;41.52
70826;SHT31;58446;41.490;22.098;2023-05-06T11:24:26;24.56;42.09
70826;SHT31;58446;41.490;22.098;2023-05-06T11:26:53;24.61;41.01
70826;SHT31;58446;41.490;22.098;2023-05-06T11:29:19;24.55;40.87
70826;SHT31;58446;41.490;22.098;2023-05-06T11:31:45;24.68;42.20
70826;SHT31;58446;41.490;22.098;2023-05-06T11:34:17;24.80;40.89
70826;SHT31;58446;41.490;22.098;2023-05-06T11:37:01;24.35;41.03
70826;SHT31;58446;41.490;22.098;2023-05-06T11:39:29;23.95;40.98
70826;SHT31;58446;41.490;22.098;2023-05-06T11:42:00;23.85;41.62
70826;SHT31;58446;41.490;22.098;2023-05-06T11:44:32;23.58;41.72
70826;SHT31;58446;41.490;22.098;2023-05-06T11:47:02;23.79;40.86
70826;SHT31;58446;41.490;22.098;2023-05-06T11:49:34;24.04;42.18
70826;SHT31;58446;41.490;22.098;2023-05-06T11:52:02;24.29;41.85
70826;SHT31;58446;41.490;22.098;2023-05-06T11:54:27;24.47;42.30
70826;SHT31;58446;41.490;22.098;2023-05-06T11:56:54;24.63;40.70
70826;SHT31;58446;41.490;22.098;2023-05-06T11:59:32;24.77;41.16
70826;SHT31;58446;41.490;22.098;2023-05-06T12:02:03;24.94;40.42
70826;SHT31;58446;41.490;22.098;2023-05-06T12:04:36;25.10;40.35
70826;SHT31;58446;41.490;22.098;2023-05-06T12:07:04;25.07;39.23
70826;SHT31;58446;41.490;22.098;2023-05-06T12:09:30;25.01;38.45
70826;SHT31;58446;41.490;22.098;2023-05-06T12:11:57;25.07;39.25
70826;SHT31;58446;41.490;22.098;2023-05-06T12:14:23;25.17;38.81
70826;SHT31;58446;41.490;22.098;2023-05-06T12:16:49;25.27;36.86
70826;SHT31;58446;41.490;22.098;2023-05-06T12:19:15;25.37;38.47
70826;SHT31;58446;41.490;22.098;2023-05-06T12:21:42;25.48;39.10
70826;SHT31;58446;41.490;22.098;2023-05-06T12:24:07;25.61;37.48
70826;SHT31;58446;41.490;22.098;2023-05-06T12:26:47;25.69;37.92
70826;SHT31;58446;41.490;22.098;2023-05-06T12:29:16;25.73;37.86
70826;SHT31;58446;41.490;22.098;2023-05-06T12:31:43;25.86;37.45
70826;SHT31;58446;41.490;22.098;2023-05-06T12:34:12;25.96;36.50
70826;SHT31;58446;41.490;22.098;2023-05-06T12:36:43;25.90;37.66
70826;SHT31;58446;41.490;22.098;2023-05-06T12:39:10;25.48;37.88
70826;SHT31;58446;41.490;22.098;2023-05-06T12:41:41;25.38;37.96
70826;SHT31;58446;41.490;22.098;2023-05-06T12:44:29;25.22;37.82
70826;SHT31;58446;41.490;22.098;2023-05-06T12:46:57;25.22;37.51
70826;SHT31;58446;41.490;22.098;2023-05-06T12:49:23;25.14;35.60
70826;SHT31;58446;41.490;22.098;2023-05-06T12:52:25;24.86;36.59
70826;SHT31;58446;41.490;22.098;2023-05-06T12:54:52;24.63;36.49
70826;SHT31;58446;41.490;22.098;2023-05-06T12:57:18;24.41;38.59
70826;SHT31;58446;41.490;22.098;2023-05-06T12:59:44;24.33;38.29
70826;SHT31;58446;41.490;22.098;2023-05-06T13:02:10;24.41;38.50
70826;SHT31;58446;41.490;22.098;2023-05-06T13:04:36;24.32;39.31
70826;SHT31;58446;41.490;22.098;2023-05-06T13:07:02;24.16;38.87
70826;SHT31;58446;41.490;22.098;2023-05-06T13:09:28;24.09;39.60
70826;SHT31;58446;41.490;22.098;2023-05-06T13:11:54;24.02;40.04
70826;SHT31;58446;41.490;22.098;2023-05-06T13:14:20;24.05;39.43
70826;SHT31;58446;41.490;22.098;2023-05-06T13:16:46;24.06;40.18
70826;SHT31;58446;41.490;22.098;2023-05-06T13:19:12;24.16;40.01
70826;SHT31;58446;41.490;22.098;2023-05-06T13:21:39;24.29;39.98
70826;SHT31;58446;41.490;22.098;2023-05-06T13:24:05;24.43;39.89
70826;SHT31;58446;41.490;22.098;2023-05-06T13:26:32;24.41;39.51
70826;SHT31;58446;41.490;22.098;2023-05-06T13:28:58;24.41;40.55
70826;SHT31;58446;41.490;22.098;2023-05-06T13:31:24;24.44;39.93
70826;SHT31;58446;41.490;22.098;2023-05-06T13:33:51;24.44;40.66
70826;SHT31;58446;41.490;22.098;2023-05-06T13:36:17;24.49;41.07
70826;SHT31;58446;41.490;22.098;2023-05-06T13:38:42;24.50;40.17
70826;SHT31;58446;41.490;22.098;2023-05-06T13:41:08;24.46;39.65
70826;SHT31;58446;41.490;22.098;2023-05-06T13:43:34;24.25;39.18
70826;SHT31;58446;41.490;22.098;2023-05-06T13:45:59;24.22;39.45
70826;SHT31;58446;41.490;22.098;2023-05-06T13:48:25;24.35;38.15
70826;SHT31;58446;41.490;22.098;2023-05-06T13:50:51;24.46;38.56
70826;SHT31;58446;41.490;22.098;2023-05-06T13:53:16;24.56;37.31
70826;SHT31;58446;41.490;22.098;2023-05-06T13:55:42;24.70;37.83
70826;SHT31;58446;41.490;22.098;2023-05-06T13:58:08;24.76;38.32
70826;SHT31;58446;41.490;22.098;2023-05-06T14:00:34;24.76;37.94
70826;SHT31;58446;41.490;22.098;2023-05-06T14:03:02;24.86;38.11
70826;SHT31;58446;41.490;22.098;2023-05-06T14:05:28;24.92;37.22
70826;SHT31;58446;41.490;22.098;2023-05-06T14:07:54;24.92;37.57
70826;SHT31;58446;41.490;22.098;2023-05-06T14:10:20;24.91;36.82
70826;SHT31;58446;41.490;22.098;2023-05-06T14:12:46;24.91;37.39
70826;SHT31;58446;41.490;22.098;2023-05-06T14:15:12;24.98;37.38
70826;SHT31;58446;41.490;22.098;2023-05-06T14:17:41;25.03;37.23
70826;SHT31;58446;41.490;22.098;2023-05-06T14:20:07;25.04;36.53
70826;SHT31;58446;41.490;22.098;2023-05-06T14:22:35;24.97;36.54
70826;SHT31;58446;41.490;22.098;2023-05-06T14:25:01;25.01;36.31
70826;SHT31;58446;41.490;22.098;2023-05-06T14:27:27;24.98;37.40
70826;SHT31;58446;41.490;22.098;2023-05-06T14:29:52;25.10;37.56
70826;SHT31;58446;41.490;22.098;2023-05-06T14:32:18;25.15;37.75
70826;SHT31;58446;41.490;22.098;2023-05-06T14:34:44;25.19;37.80
70826;SHT31;58446;41.490;22.098;2023-05-06T14:37:09;25.27;38.23
70826;SHT31;58446;41.490;22.098;2023-05-06T14:39:35;25.24;38.19
70826;SHT31;58446;41.490;22.098;2023-05-06T14:42:01;25.27;36.88
70826;SHT31;58446;41.490;22.098;2023-05-06T14:44:26;25.28;37.62
70826;SHT31;58446;41.490;22.098;2023-05-06T14:46:52;25.24;37.59
70826;SHT31;58446;41.490;22.098;2023-05-06T14:49:18;25.15;38.51
70826;SHT31;58446;41.490;22.098;2023-05-06T14:51:44;24.97;38.64
70826;SHT31;58446;41.490;22.098;2023-05-06T14:54:10;24.84;38.35
70826;SHT31;58446;41.490;22.098;2023-05-06T14:56:36;24.67;38.76
70826;SHT31;58446;41.490;22.098;2023-05-06T14:59:02;24.60;39.11
70826;SHT31;58446;41.490;22.098;2023-05-06T15:01:28;24.73;39.30
70826;SHT31;58446;41.490;22.098;2023-05-06T15:03:56;24.74;39.06
70826;SHT31;58446;41.490;22.098;2023-05-06T15:06:22;24.87;38.42
70826;SHT31;58446;41.490;22.098;2023-05-06T15:08:47;24.86;38.26
70826;SHT31;58446;41.490;22.098;2023-05-06T15:11:13;24.87;38.12
70826;SHT31;58446;41.490;22.098;2023-05-06T15:13:39;24.80;38.12
70826;SHT31;58446;41.490;22.098;2023-05-06T15:16:05;24.77;37.81
70826;SHT31;58446;41.490;22.098;2023-05-06T15:18:31;24.77;37.29
70826;SHT31;58446;41.490;22.098;2023-05-06T15:20:57;24.66;38.29
70826;SHT31;58446;41.490;22.098;2023-05-06T15:23:26;24.67;38.55
70826;SHT31;58446;41.490;22.098;2023-05-06T15:25:52;24.44;38.18
70826;SHT31;58446;41.490;22.098;2023-05-06T15:28:17;24.50;38.60
70826;SHT31;58446;41.490;22.098;2023-05-06T15:30:43;24.56;38.28
70826;SHT31;58446;41.490;22.098;2023-05-06T15:33:09;24.60;38.29